createdAt,value
2018-12-01T00:04:29.523Z,21.24
2018-12-01T00:09:33.123Z,21.20
2018-12-01T00:14:36.584Z,21.28
2018-12-01T00:19:40.043Z,21.24
2018-12-01T00:24:43.448Z,21.26
2018-12-01T00:29:47.148Z,21.25
2018-12-01T00:34:50.539Z,21.25
2018-12-01T00:39:53.931Z,21.24
2018-12-01T00:44:57.565Z,21.26
2018-12-01T00:50:01.810Z,21.25
2018-12-01T00:55:07.719Z,21.22
2018-12-01T01:00:23.042Z,21.24
2018-12-01T01:05:27.537Z,21.22
2018-12-01T01:10:32.062Z,21.23
2018-12-01T01:15:35.534Z,21.23
2018-12-01T01:20:38.905Z,21.22
2018-12-01T01:25:42.322Z,21.23
2018-12-01T01:30:45.686Z,21.19
2018-12-01T01:35:49.211Z,21.22
2018-12-01T01:40:58.006Z,21.21
2018-12-01T01:46:01.536Z,21.22
2018-12-01T01:51:04.948Z,21.17
2018-12-01T01:56:08.288Z,21.21
2018-12-01T02:01:11.685Z,21.17
2018-12-01T02:06:15.140Z,21.20
2018-12-01T02:11:18.516Z,21.19
2018-12-01T02:16:21.935Z,21.20
2018-12-01T02:21:26.178Z,21.17
2018-12-01T02:26:29.645Z,21.14
2018-12-01T02:31:33.086Z,21.17
2018-12-01T02:36:36.614Z,21.16
2018-12-01T02:41:40.022Z,21.14
2018-12-01T02:46:54.717Z,21.13
2018-12-01T02:51:58.234Z,21.12
2018-12-01T03:02:11.198Z,21.11
2018-12-01T03:07:14.650Z,21.07
2018-12-01T03:12:18.061Z,21.05
2018-12-01T03:17:21.493Z,21.00
2018-12-01T03:22:24.877Z,20.98
2018-12-01T03:27:32.402Z,20.93
2018-12-01T03:32:35.866Z,20.90
2018-12-01T03:37:39.723Z,20.86
2018-12-01T03:42:43.165Z,20.84
2018-12-01T03:47:46.712Z,20.82
2018-12-01T03:52:52.407Z,20.80
2018-12-01T03:57:55.793Z,20.77
2018-12-01T04:03:00.109Z,20.76
2018-12-01T04:08:03.748Z,20.75
2018-12-01T04:13:07.138Z,20.72
2018-12-01T04:18:10.703Z,20.72
2018-12-01T04:23:14.544Z,20.72
2018-12-01T04:28:19.445Z,20.68
2018-12-01T04:33:22.794Z,20.68
2018-12-01T04:38:26.149Z,20.71
2018-12-01T04:43:29.523Z,20.64
2018-12-01T04:48:32.901Z,20.71
2018-12-01T04:53:36.253Z,20.73
2018-12-01T04:58:39.583Z,20.75
2018-12-01T05:03:42.918Z,20.78
2018-12-01T05:08:46.234Z,20.80
2018-12-01T05:13:49.556Z,20.83
2018-12-01T05:18:52.949Z,20.86
2018-12-01T05:23:56.327Z,20.89
2018-12-01T05:28:59.667Z,20.92
2018-12-01T05:34:03.014Z,20.92
2018-12-01T05:39:08.579Z,20.95
2018-12-01T05:44:12.002Z,20.96
2018-12-01T05:49:15.331Z,20.98
2018-12-01T05:54:18.677Z,20.99
2018-12-01T05:59:22.051Z,21.01
2018-12-01T06:04:25.421Z,21.00
2018-12-01T06:09:28.737Z,21.02
2018-12-01T06:14:32.064Z,21.04
2018-12-01T06:19:35.380Z,21.04
2018-12-01T06:24:38.734Z,21.06
2018-12-01T06:29:42.059Z,21.07
2018-12-01T06:34:45.471Z,21.07
2018-12-01T06:39:48.829Z,21.07
2018-12-01T06:44:52.175Z,21.07
2018-12-01T06:49:55.566Z,21.08
2018-12-01T06:54:58.919Z,21.09
2018-12-01T07:00:02.436Z,21.08
2018-12-01T07:05:07.251Z,21.09
2018-12-01T07:10:20.459Z,21.09
2018-12-01T07:15:27.141Z,21.10
2018-12-01T07:20:30.461Z,21.09
2018-12-01T07:25:33.798Z,21.08
2018-12-01T07:30:37.139Z,21.09
2018-12-01T07:35:40.568Z,21.09
2018-12-01T07:40:43.955Z,21.08
2018-12-01T07:45:47.274Z,21.07
2018-12-01T07:50:50.620Z,18.70
2018-12-01T07:55:54.005Z,17.89
2018-12-01T08:00:57.351Z,17.82
2018-12-01T08:06:00.675Z,19.20
2018-12-01T08:11:04.061Z,19.76
2018-12-01T08:16:07.460Z,19.94
2018-12-01T08:21:10.781Z,20.03
2018-12-01T08:26:14.699Z,20.14
2018-12-01T08:31:18.018Z,20.25
2018-12-01T08:36:21.388Z,20.28
2018-12-01T08:41:24.850Z,20.35
2018-12-01T08:46:28.203Z,20.32
2018-12-01T08:51:31.565Z,20.34
2018-12-01T08:56:34.983Z,20.48
2018-12-01T09:01:38.294Z,20.58
2018-12-01T09:06:41.666Z,20.63
2018-12-01T09:11:44.995Z,20.68
2018-12-01T09:16:48.377Z,20.68
2018-12-01T09:21:51.723Z,20.69
2018-12-01T09:26:55.057Z,20.69
2018-12-01T09:31:58.398Z,20.70
2018-12-01T09:37:03.724Z,20.69
2018-12-01T09:42:07.127Z,20.69
2018-12-01T09:47:10.500Z,20.69
2018-12-01T09:52:13.844Z,20.69
2018-12-01T09:57:17.167Z,20.68
2018-12-01T10:02:21.172Z,20.70
2018-12-01T10:07:24.566Z,20.72
2018-12-01T10:12:27.908Z,20.70
2018-12-01T10:17:31.250Z,20.79
2018-12-01T10:22:34.808Z,20.78
2018-12-01T10:27:38.214Z,20.88
2018-12-01T10:32:41.838Z,20.90
2018-12-01T10:37:47.827Z,20.81
2018-12-01T10:42:51.857Z,20.78
2018-12-01T10:47:55.235Z,20.76
2018-12-01T10:52:58.626Z,20.76
2018-12-01T10:58:05.373Z,20.77
2018-12-01T11:03:14.210Z,20.82
2018-12-01T11:08:17.984Z,20.83
2018-12-01T11:13:21.345Z,20.90
2018-12-01T11:18:25.004Z,20.86
2018-12-01T11:23:29.435Z,20.88
2018-12-01T11:28:32.787Z,20.95
2018-12-01T11:38:45.676Z,20.87
2018-12-01T11:43:50.181Z,20.88
2018-12-01T11:48:53.896Z,20.96
2018-12-01T11:53:59.204Z,20.94
2018-12-01T11:59:02.866Z,20.91
2018-12-01T12:04:06.604Z,20.94
2018-12-01T12:09:10.232Z,20.96
2018-12-01T12:14:14.197Z,20.89
2018-12-01T12:19:17.795Z,20.87
2018-12-01T12:24:21.156Z,20.88
2018-12-01T12:29:24.620Z,20.84
2018-12-01T12:34:29.122Z,20.84
2018-12-01T12:39:32.488Z,20.84
2018-12-01T12:44:35.885Z,20.80
2018-12-01T12:49:39.248Z,20.80
2018-12-01T12:54:42.617Z,20.78
2018-12-01T12:59:47.095Z,20.79
2018-12-01T13:04:51.087Z,20.78
2018-12-01T13:09:54.505Z,20.79
2018-12-01T13:14:58.672Z,20.78
2018-12-01T13:20:02.077Z,20.76
2018-12-01T13:25:08.877Z,20.78
2018-12-01T13:30:15.515Z,20.77
2018-12-01T13:35:19.079Z,20.78
2018-12-01T13:40:22.463Z,20.77
2018-12-01T13:45:26.847Z,20.78
2018-12-01T13:50:30.262Z,20.75
2018-12-01T13:55:33.610Z,20.76
2018-12-01T14:00:37.012Z,20.75
2018-12-01T14:05:41.671Z,20.75
2018-12-01T14:10:47.330Z,20.78
2018-12-01T14:15:50.755Z,20.80
2018-12-01T14:20:54.094Z,20.77
2018-12-01T14:25:57.444Z,20.78
2018-12-01T14:31:00.790Z,20.80
2018-12-01T14:36:04.130Z,20.83
2018-12-01T14:41:07.513Z,20.86
2018-12-01T14:46:11.126Z,20.86
2018-12-01T14:51:14.467Z,20.86
2018-12-01T14:56:18.856Z,20.83
2018-12-01T15:01:22.215Z,20.79
2018-12-01T15:06:25.614Z,20.89
2018-12-01T15:11:29.677Z,20.84
2018-12-01T15:16:33.009Z,20.82
2018-12-01T15:21:36.380Z,20.82
2018-12-01T15:26:42.676Z,20.80
2018-12-01T15:31:46.136Z,20.82
2018-12-01T15:36:49.691Z,20.83
2018-12-01T15:41:53.364Z,20.81
2018-12-01T15:46:56.702Z,20.82
2018-12-01T15:52:00.044Z,20.80
2018-12-01T15:57:03.407Z,20.79
2018-12-01T16:02:06.755Z,20.78
2018-12-01T16:07:10.084Z,20.79
2018-12-01T16:12:13.402Z,20.81
2018-12-01T16:17:16.774Z,20.79
2018-12-01T16:22:20.446Z,20.80
2018-12-01T16:27:23.782Z,20.78
2018-12-01T16:32:27.173Z,20.81
2018-12-01T16:37:30.523Z,20.80
2018-12-01T16:42:33.931Z,20.79
2018-12-01T16:47:37.377Z,20.78
2018-12-01T16:52:41.984Z,20.75
2018-12-01T16:57:45.404Z,20.74
2018-12-01T17:02:51.242Z,20.72
2018-12-01T17:07:54.709Z,20.95
2018-12-01T17:12:58.435Z,21.42
2018-12-01T17:18:01.634Z,21.65
2018-12-01T17:23:07.542Z,21.69
2018-12-01T17:28:12.690Z,21.68
2018-12-01T17:33:16.068Z,21.83
2018-12-01T17:38:20.448Z,22.00
2018-12-01T17:43:33.695Z,22.10
2018-12-01T17:48:37.083Z,22.05
2018-12-01T17:53:40.880Z,22.07
2018-12-01T17:58:44.224Z,22.08
2018-12-01T18:03:47.733Z,21.98
2018-12-01T18:08:52.443Z,21.91
2018-12-01T18:13:55.803Z,21.93
2018-12-01T18:19:00.442Z,22.05
2018-12-01T18:24:06.768Z,22.11
2018-12-01T18:29:10.620Z,21.97
2018-12-01T18:34:15.445Z,21.98
2018-12-01T18:39:20.828Z,22.07
2018-12-01T18:44:24.259Z,22.04
2018-12-01T18:49:27.590Z,22.03
2018-12-01T18:54:31.011Z,22.04
2018-12-01T18:59:34.371Z,21.90
2018-12-01T19:04:38.227Z,21.86
2018-12-01T19:09:41.962Z,22.02
2018-12-01T19:14:45.500Z,22.09
2018-12-01T19:19:48.838Z,22.07
2018-12-01T19:24:52.436Z,22.24
2018-12-01T19:29:55.981Z,22.02
2018-12-01T19:35:00.089Z,21.91
2018-12-01T19:40:03.829Z,21.97
2018-12-01T19:45:07.589Z,21.89
2018-12-01T19:50:14.739Z,21.95
2018-12-01T19:55:19.567Z,21.98
2018-12-01T20:00:24.633Z,22.17
2018-12-01T20:05:28.179Z,22.13
2018-12-01T20:10:36.170Z,22.11
2018-12-01T20:15:41.862Z,22.03
2018-12-01T20:20:45.275Z,22.01
2018-12-01T20:25:50.185Z,22.01
2018-12-01T20:30:53.771Z,21.85
2018-12-01T20:36:02.019Z,21.99
2018-12-01T20:41:05.773Z,21.77
2018-12-01T20:46:09.161Z,21.76
2018-12-01T20:51:12.528Z,21.69
2018-12-01T20:56:18.631Z,21.67
2018-12-01T21:01:21.997Z,21.64
2018-12-01T21:06:25.331Z,21.56
2018-12-01T21:11:28.662Z,21.56
2018-12-01T21:16:31.972Z,21.56
2018-12-01T21:21:35.392Z,21.67
2018-12-01T21:26:38.705Z,21.49
2018-12-01T21:31:42.053Z,21.55
2018-12-01T21:36:45.397Z,21.58
2018-12-01T21:41:48.951Z,21.51
2018-12-01T21:46:52.366Z,21.69
2018-12-01T21:51:55.707Z,21.73
2018-12-01T21:56:59.043Z,21.73
2018-12-01T22:02:02.403Z,21.74
2018-12-01T22:07:05.748Z,21.76
2018-12-01T22:12:09.099Z,21.73
2018-12-01T22:17:12.444Z,21.75
2018-12-01T22:22:15.935Z,21.76
2018-12-01T22:27:19.255Z,21.76
2018-12-01T22:32:22.613Z,21.75
2018-12-01T22:37:26.040Z,21.73
2018-12-01T22:42:29.375Z,21.77
2018-12-01T22:47:32.771Z,21.70
2018-12-01T22:52:36.150Z,21.73
2018-12-01T22:57:39.839Z,21.74
2018-12-01T23:02:43.213Z,21.69
2018-12-01T23:07:46.549Z,21.71
2018-12-01T23:12:49.902Z,21.68
2018-12-01T23:17:53.257Z,21.68
2018-12-01T23:22:56.576Z,21.67
2018-12-01T23:28:01.781Z,21.65
2018-12-01T23:33:11.203Z,21.66
2018-12-01T23:38:14.546Z,21.67
2018-12-01T23:43:18.015Z,21.66
2018-12-01T23:48:21.344Z,21.64
2018-12-01T23:53:25.703Z,21.65
2018-12-01T23:58:29.058Z,21.66
